CST,Max TemperatureF,Mean TemperatureF,Min TemperatureF,Max Dew PointF,MeanDew PointF,Min DewpointF,Max Humidity, Mean Humidity, Min Humidity, Max Sea Level PressureIn, Mean Sea Level PressureIn, Min Sea Level PressureIn, Max VisibilityMiles, Mean VisibilityMiles, Min VisibilityMiles, Max Wind SpeedMPH, Mean Wind SpeedMPH, Max Gust SpeedMPH,PrecipitationIn, CloudCover, Events, WindDirDegrees
2011-12-1,41,34,27,31,26,20,89,72,54,30.37,30.28,30.17,10,8,2,13,5,15,0.05,7,Rain-Snow,298
2011-12-2,36,30,23,32,26,19,92,84,75,30.50,30.41,30.32,10,9,3,15,7,23,T,3,Snow,150
2011-12-3,48,42,35,44,40,32,96,89,82,30.30,30.15,29.85,10,6,2,26,13,33,0.73,8,Rain,179
2011-12-4,51,42,33,47,36,28,92,84,75,30.30,30.03,29.84,10,10,8,24,11,35,0.02,8,Rain,268
2011-12-5,37,35,32,31,29,26,89,80,70,30.37,30.32,30.26,10,8,3,18,9,23,T,8,Rain-Snow,351
2011-12-6,32,30,28,25,18,12,78,62,45,30.35,30.28,30.17,10,10,10,18,8,22,0.00,8,,42
2011-12-7,33,27,21,23,18,12,84,68,51,30.17,30.10,30.00,10,10,10,17,9,23,0.00,5,,259
2011-12-8,34,28,22,23,21,18,81,71,61,30.27,30.21,30.16,10,9,2,18,6,22,T,7,Snow,261
2011-12-9,27,20,13,18,8,3,77,57,37,30.50,30.36,30.23,10,10,6,16,8,21,0.01,2,Snow,295
2011-12-10,26,18,10,16,7,2,77,57,36,30.56,30.48,30.41,10,10,10,15,8,18,0.00,2,,222
2011-12-11,43,32,21,30,24,17,92,75,57,30.44,30.38,30.34,10,9,6,17,10,22,0.00,0,,181
2011-12-12,45,36,27,29,26,23,92,73,53,30.40,30.37,30.34,10,10,7,12,7,15,0.00,6,,174
2011-12-13,44,40,36,37,32,27,92,77,62,30.42,30.34,30.22,10,8,2,10,4,13,0.08,8,Rain,150
2011-12-14,54,46,38,52,44,37,100,93,86,30.19,29.90,29.65,10,5,1,18,12,24,0.65,8,Rain,182
2011-12-15,56,43,29,53,34,21,93,76,59,30.30,29.88,29.64,10,10,10,29,17,38,0.03,8,,272
2011-12-16,34,27,20,23,19,15,84,68,51,30.44,30.38,30.30,10,10,10,13,4,16,0.00,3,,314
2011-12-17,31,27,23,27,24,21,92,85,78,30.37,30.26,30.18,10,5,1,12,4,13,0.09,7,Snow,220
2011-12-18,42,30,17,34,22,12,92,83,73,30.25,30.14,29.89,10,5,0,17,8,22,0.00,4,Fog,185
2011-12-19,47,41,35,36,32,25,79,72,64,30.23,30.04,29.86,10,10,10,18,9,23,0.00,5,,336
2011-12-20,39,35,31,34,29,24,92,78,64,30.22,30.00,29.79,10,8,2,12,6,14,0.05,8,Snow,70
2011-12-21,39,36,32,36,33,30,100,91,82,29.96,29.79,29.68,10,6,0,15,5,17,0.03,7,Fog-Rain,258
2011-12-22,36,31,25,32,28,16,96,81,66,30.33,30.13,29.97,10,8,5,20,10,24,T,7,,6
2011-12-23,31,25,18,21,17,13,81,67,53,30.39,30.31,30.23,10,10,10,20,8,23,T,3,Snow,234
2011-12-24,38,29,19,27,22,16,91,75,59,30.33,30.26,30.15,10,10,8,20,8,23,0.00,1,,201
2011-12-25,44,34,24,26,24,21,81,63,45,30.34,30.21,30.09,10,10,10,24,9,30,0.00,1,,274
2011-12-26,44,33,21,29,25,19,92,71,49,30.34,30.13,29.85,10,10,10,25,11,32,T,4,Rain,189
2011-12-27,41,33,24,30,25,15,89,73,56,30.06,29.79,29.64,10,10,10,24,11,33,0.00,6,,313
2011-12-28,31,25,19,26,17,11,92,75,58,30.12,30.01,29.81,10,10,10,12,6,20,0.00,6,,157
2011-12-29,47,38,29,31,29,27,92,73,53,29.76,29.65,29.53,10,10,8,21,9,26,T,5,Rain,210
2011-12-30,41,36,31,39,34,28,100,91,82,29.88,29.63,29.45,10,6,2,20,11,25,0.32,8,Rain-Snow,38
2011-12-31,40,32,24,36,30,23,100,93,85,30.02,29.90,29.62,10,4,0,21,10,33,0.00,6,Fog,168